createdAt,value
2018-11-04T00:00:59.691Z,9.50
2018-11-04T00:03:27.838Z,9.40
2018-11-04T00:05:56.009Z,9.50
2018-11-04T00:08:24.099Z,9.50
2018-11-04T00:10:52.216Z,9.50
2018-11-04T00:13:20.562Z,9.60
2018-11-04T00:15:48.583Z,9.60
2018-11-04T00:18:16.707Z,9.60
2018-11-04T00:20:44.860Z,9.70
2018-11-04T00:23:13.020Z,9.70
2018-11-04T00:25:41.130Z,9.70
2018-11-04T00:28:09.221Z,9.70
2018-11-04T00:30:37.356Z,9.80
2018-11-04T00:33:05.807Z,9.80
2018-11-04T00:35:33.929Z,9.90
2018-11-04T00:38:02.083Z,9.90
2018-11-04T00:40:30.187Z,9.90
2018-11-04T00:42:58.312Z,9.90
2018-11-04T00:45:26.553Z,9.80
2018-11-04T00:47:54.576Z,9.80
2018-11-04T00:50:22.695Z,9.90
2018-11-04T00:52:50.817Z,9.90
2018-11-04T00:55:18.945Z,9.90
2018-11-04T00:57:47.060Z,10.00
2018-11-04T01:00:17.207Z,9.90
2018-11-04T01:02:46.389Z,9.90
2018-11-04T01:05:14.721Z,10.00
2018-11-04T01:07:42.867Z,9.90
2018-11-04T01:10:11.383Z,9.90
2018-11-04T01:12:39.809Z,9.90
2018-11-04T01:15:09.052Z,10.00
2018-11-04T01:17:37.160Z,10.00
2018-11-04T01:20:07.158Z,10.00
2018-11-04T01:22:35.266Z,10.00
2018-11-04T01:25:03.377Z,10.00
2018-11-04T01:27:31.487Z,10.00
2018-11-04T01:29:59.597Z,10.00
2018-11-04T01:32:27.780Z,10.00
2018-11-04T01:34:55.877Z,10.10
2018-11-04T01:37:24.016Z,10.00
2018-11-04T01:39:52.140Z,10.10
2018-11-04T01:42:20.233Z,10.10
2018-11-04T01:44:48.364Z,10.10
2018-11-04T01:47:16.499Z,10.10
2018-11-04T01:49:44.634Z,10.10
2018-11-04T01:52:13.703Z,10.10
2018-11-04T01:54:41.816Z,10.00
2018-11-04T01:57:09.967Z,10.00
2018-11-04T01:59:38.055Z,10.10
2018-11-04T02:02:06.181Z,10.10
2018-11-04T02:04:34.403Z,10.10
2018-11-04T02:07:02.523Z,10.20
2018-11-04T02:09:30.643Z,10.20
2018-11-04T02:11:58.742Z,10.10
2018-11-04T02:14:26.852Z,10.10
2018-11-04T02:16:54.958Z,10.10
2018-11-04T02:19:23.074Z,10.10
2018-11-04T02:21:51.236Z,10.20
2018-11-04T02:24:19.330Z,10.20
2018-11-04T02:26:47.443Z,10.10
2018-11-04T02:29:15.552Z,10.10
2018-11-04T02:31:43.704Z,10.20
2018-11-04T02:34:11.803Z,10.20
2018-11-04T02:36:39.966Z,10.20
2018-11-04T02:39:08.558Z,10.20
2018-11-04T02:41:36.795Z,10.20
2018-11-04T02:44:05.163Z,10.20
2018-11-04T02:46:33.260Z,10.20
2018-11-04T02:49:01.363Z,10.20
2018-11-04T02:51:29.484Z,10.20
2018-11-04T02:53:57.577Z,10.20
2018-11-04T02:56:25.796Z,10.10
2018-11-04T02:58:53.942Z,10.10
2018-11-04T03:01:22.039Z,10.10
2018-11-04T03:03:50.147Z,10.20
2018-11-04T03:06:18.258Z,10.20
2018-11-04T03:08:46.407Z,10.20
2018-11-04T03:11:14.514Z,10.10
2018-11-04T03:13:42.964Z,10.10
2018-11-04T03:16:11.096Z,10.10
2018-11-04T03:18:39.198Z,10.10
2018-11-04T03:21:07.611Z,10.10
2018-11-04T03:23:35.767Z,10.10
2018-11-04T03:26:03.969Z,10.10
2018-11-04T03:28:32.066Z,10.10
2018-11-04T03:31:00.216Z,10.10
2018-11-04T03:33:28.369Z,10.10
2018-11-04T03:35:56.468Z,10.10
2018-11-04T03:38:24.571Z,10.20
2018-11-04T03:40:52.672Z,10.10
2018-11-04T03:43:20.768Z,10.20
2018-11-04T03:45:48.931Z,10.20
2018-11-04T03:48:17.237Z,10.20
2018-11-04T03:50:45.463Z,10.20
2018-11-04T03:53:13.589Z,10.20
2018-11-04T03:55:41.711Z,10.20
2018-11-04T03:58:09.825Z,10.20
2018-11-04T04:00:37.940Z,10.20
2018-11-04T04:03:06.024Z,10.20
2018-11-04T04:05:34.164Z,10.20
2018-11-04T04:08:02.276Z,10.30
2018-11-04T04:10:30.375Z,10.30
2018-11-04T04:12:58.491Z,10.20
2018-11-04T04:15:26.588Z,10.20
2018-11-04T04:17:54.696Z,10.20
2018-11-04T04:20:22.807Z,10.20
2018-11-04T04:22:50.896Z,10.20
2018-11-04T04:25:19.029Z,10.20
2018-11-04T04:27:47.137Z,10.20
2018-11-04T04:30:15.303Z,10.20
2018-11-04T04:32:43.439Z,10.20
2018-11-04T04:35:11.644Z,10.20
2018-11-04T04:37:40.217Z,10.30
2018-11-04T04:40:08.661Z,10.30
2018-11-04T04:42:36.780Z,10.20
2018-11-04T04:45:04.982Z,10.30
2018-11-04T04:47:33.279Z,10.30
2018-11-04T04:50:01.496Z,10.30
2018-11-04T04:52:29.595Z,10.30
2018-11-04T04:54:57.700Z,10.30
2018-11-04T04:57:25.832Z,10.30
2018-11-04T04:59:53.911Z,10.30
2018-11-04T05:02:22.015Z,10.30
2018-11-04T05:04:50.123Z,10.30
2018-11-04T05:07:18.223Z,10.30
2018-11-04T05:09:46.335Z,10.30
2018-11-04T05:12:14.502Z,10.30
2018-11-04T05:14:42.598Z,10.30
2018-11-04T05:17:10.795Z,10.30
2018-11-04T05:19:38.883Z,10.20
2018-11-04T05:22:07.452Z,10.20
2018-11-04T05:24:35.600Z,10.20
2018-11-04T05:27:03.703Z,10.20
2018-11-04T05:29:31.794Z,10.20
2018-11-04T05:31:59.912Z,10.20
2018-11-04T05:34:28.031Z,10.20
2018-11-04T05:36:56.147Z,10.20
2018-11-04T05:39:24.260Z,10.30
2018-11-04T05:41:52.352Z,10.20
2018-11-04T05:44:20.523Z,10.20
2018-11-04T05:46:48.686Z,10.20
2018-11-04T05:49:16.775Z,10.10
2018-11-04T05:51:44.884Z,10.20
2018-11-04T05:54:12.996Z,10.20
2018-11-04T05:56:41.112Z,10.20
2018-11-04T05:59:09.207Z,10.30
2018-11-04T06:01:37.315Z,10.30
2018-11-04T06:04:05.497Z,10.30
2018-11-04T06:06:33.616Z,10.30
2018-11-04T06:09:01.716Z,10.30
2018-11-04T06:11:29.827Z,10.40
2018-11-04T06:13:57.924Z,10.40
2018-11-04T06:16:26.027Z,10.40
2018-11-04T06:18:54.132Z,10.40
2018-11-04T06:21:22.233Z,10.40
2018-11-04T06:23:50.331Z,10.40
2018-11-04T06:26:18.446Z,10.40
2018-11-04T06:28:46.546Z,10.40
2018-11-04T06:31:14.695Z,10.40
2018-11-04T06:33:42.804Z,10.40
2018-11-04T06:36:10.934Z,10.50
2018-11-04T06:38:39.022Z,10.50
2018-11-04T06:41:07.188Z,10.40
2018-11-04T06:43:35.249Z,10.40
2018-11-04T06:46:03.338Z,10.50
2018-11-04T06:48:31.457Z,10.50
2018-11-04T06:50:59.550Z,10.50
2018-11-04T06:53:27.672Z,10.60
2018-11-04T06:55:55.780Z,10.60
2018-11-04T06:58:23.903Z,10.60
2018-11-04T07:00:52.016Z,10.60
2018-11-04T07:03:20.143Z,10.60
2018-11-04T07:05:48.238Z,10.60
2018-11-04T07:08:16.351Z,10.60
2018-11-04T07:10:44.461Z,10.60
2018-11-04T07:13:12.556Z,10.70
2018-11-04T07:15:40.656Z,10.70
2018-11-04T07:18:08.776Z,10.70
2018-11-04T07:20:36.903Z,10.70
2018-11-04T07:23:05.406Z,10.70
2018-11-04T07:25:33.589Z,10.70
2018-11-04T07:28:01.718Z,10.80
2018-11-04T07:30:29.836Z,10.80
2018-11-04T07:32:57.968Z,10.90
2018-11-04T07:35:26.079Z,10.90
2018-11-04T07:37:54.186Z,10.90
2018-11-04T07:40:22.411Z,11.00
2018-11-04T07:42:50.535Z,11.00
2018-11-04T07:45:18.664Z,11.00
2018-11-04T07:47:46.764Z,11.00
2018-11-04T07:50:15.385Z,11.10
2018-11-04T07:52:44.241Z,11.00
2018-11-04T07:55:12.356Z,10.90
2018-11-04T07:57:42.652Z,11.00
2018-11-04T08:00:13.892Z,11.00
2018-11-04T08:02:42.290Z,11.10
2018-11-04T08:05:11.360Z,11.10
2018-11-04T08:07:40.161Z,11.20
2018-11-04T08:10:10.368Z,11.10
2018-11-04T08:12:38.851Z,11.20
2018-11-04T08:15:06.995Z,11.20
2018-11-04T08:17:35.218Z,11.20
2018-11-04T08:20:03.401Z,11.30
2018-11-04T08:22:31.763Z,11.30
2018-11-04T08:24:59.892Z,11.30
2018-11-04T08:27:28.119Z,11.20
2018-11-04T08:29:56.445Z,11.20
2018-11-04T08:32:24.968Z,11.30
2018-11-04T08:34:53.260Z,11.30
2018-11-04T08:37:21.380Z,11.30
2018-11-04T08:39:49.562Z,11.30
2018-11-04T08:42:17.619Z,11.40
2018-11-04T08:44:45.764Z,11.40
2018-11-04T08:47:13.884Z,11.40
2018-11-04T08:49:41.980Z,11.40
2018-11-04T08:52:10.123Z,11.50
2018-11-04T08:54:38.283Z,11.60
2018-11-04T08:57:06.514Z,11.60
2018-11-04T08:59:34.615Z,11.60
2018-11-04T09:02:02.808Z,11.70
2018-11-04T09:04:30.915Z,11.80
2018-11-04T09:06:59.048Z,11.80
2018-11-04T09:09:27.335Z,11.70
2018-11-04T09:11:55.491Z,11.80
2018-11-04T09:14:23.680Z,11.80
2018-11-04T09:16:51.725Z,11.90
2018-11-04T09:19:19.840Z,11.90
2018-11-04T09:21:48.168Z,12.00
2018-11-04T09:24:16.204Z,11.90
2018-11-04T09:26:44.349Z,11.90
2018-11-04T09:29:12.632Z,11.90
2018-11-04T09:31:40.703Z,12.00
2018-11-04T09:34:08.827Z,12.10
2018-11-04T09:36:37.016Z,12.10
2018-11-04T09:39:07.353Z,12.10
2018-11-04T09:41:35.488Z,12.20
2018-11-04T09:44:03.603Z,12.30
2018-11-04T09:46:31.726Z,12.30
2018-11-04T09:48:59.829Z,12.30
2018-11-04T09:51:27.913Z,12.30
2018-11-04T09:53:56.043Z,12.40
2018-11-04T09:56:24.255Z,12.40
2018-11-04T09:58:52.353Z,12.50
2018-11-04T10:01:20.485Z,12.70
2018-11-04T10:03:48.638Z,12.80
2018-11-04T10:06:16.719Z,12.90
2018-11-04T10:08:44.825Z,12.90
2018-11-04T10:11:12.930Z,12.90
2018-11-04T10:13:41.039Z,12.90
2018-11-04T10:16:09.362Z,13.00
2018-11-04T10:18:37.424Z,13.00
2018-11-04T10:21:06.103Z,12.80
2018-11-04T10:23:33.648Z,12.70
2018-11-04T10:26:01.743Z,12.80
2018-11-04T10:28:29.985Z,12.80
2018-11-04T10:30:58.116Z,12.90
2018-11-04T10:33:26.227Z,12.90
2018-11-04T10:35:54.378Z,12.90
2018-11-04T10:38:22.464Z,12.90
2018-11-04T10:40:50.536Z,12.80
2018-11-04T10:43:18.663Z,12.90
2018-11-04T10:45:46.768Z,12.90
2018-11-04T10:48:14.854Z,12.80
2018-11-04T10:50:42.958Z,12.80
2018-11-04T10:53:11.091Z,12.80
2018-11-04T10:55:39.238Z,12.80
2018-11-04T10:58:07.340Z,12.80
2018-11-04T11:00:40.951Z,12.90
2018-11-04T11:03:09.055Z,12.90
2018-11-04T11:05:37.159Z,12.90
2018-11-04T11:08:05.530Z,12.90
2018-11-04T11:10:33.647Z,13.00
2018-11-04T11:13:01.759Z,13.00
2018-11-04T11:15:29.886Z,13.10
2018-11-04T11:17:57.992Z,13.00
2018-11-04T11:20:26.107Z,13.10
2018-11-04T11:22:54.431Z,13.00
2018-11-04T11:25:22.342Z,13.00
2018-11-04T11:27:50.511Z,13.00
2018-11-04T11:30:18.777Z,13.00
2018-11-04T11:32:46.938Z,13.00
2018-11-04T11:35:15.073Z,13.00
2018-11-04T11:37:43.220Z,13.00
2018-11-04T11:40:11.333Z,13.10
2018-11-04T11:42:39.547Z,13.10
2018-11-04T11:45:14.408Z,13.20
2018-11-04T11:47:42.543Z,13.30
2018-11-04T11:50:10.655Z,13.30
2018-11-04T11:52:38.898Z,13.40
2018-11-04T11:55:07.157Z,13.40
2018-11-04T11:57:35.349Z,13.50
2018-11-04T12:00:03.927Z,13.60
2018-11-04T12:02:32.047Z,13.60
2018-11-04T12:05:00.141Z,13.60
2018-11-04T12:07:28.231Z,13.60
2018-11-04T12:09:56.333Z,13.60
2018-11-04T12:12:24.427Z,13.60
2018-11-04T12:14:52.535Z,13.60
2018-11-04T12:17:20.670Z,13.50
2018-11-04T12:19:48.779Z,13.50
2018-11-04T12:22:16.927Z,13.50
2018-11-04T12:24:45.028Z,13.60
2018-11-04T12:27:13.128Z,13.60
2018-11-04T12:29:41.290Z,13.60
2018-11-04T12:32:09.656Z,13.60
2018-11-04T12:34:37.769Z,13.60
2018-11-04T12:37:05.892Z,13.70
2018-11-04T12:39:34.003Z,13.60
2018-11-04T12:42:02.120Z,13.70
2018-11-04T12:44:30.255Z,13.70
2018-11-04T12:46:58.364Z,13.70
2018-11-04T12:49:26.515Z,13.80
2018-11-04T12:51:54.607Z,13.80
2018-11-04T12:54:22.696Z,13.80
2018-11-04T12:56:50.823Z,13.80
2018-11-04T12:59:19.036Z,13.70
2018-11-04T13:01:47.233Z,13.70
2018-11-04T13:04:15.283Z,13.70
2018-11-04T13:06:43.422Z,13.70
2018-11-04T13:09:11.576Z,13.60
2018-11-04T13:11:40.174Z,13.70
2018-11-04T13:14:08.996Z,13.70
2018-11-04T13:16:37.131Z,13.70
2018-11-04T13:19:05.432Z,13.70
2018-11-04T13:21:34.661Z,13.70
2018-11-04T13:24:02.847Z,13.70
2018-11-04T13:26:31.011Z,13.70
2018-11-04T13:28:59.356Z,13.80
2018-11-04T13:31:27.499Z,13.80
2018-11-04T13:33:55.656Z,13.70
2018-11-04T13:36:23.808Z,13.70
2018-11-04T13:38:51.956Z,13.70
2018-11-04T13:41:20.157Z,13.70
2018-11-04T13:43:48.305Z,13.70
2018-11-04T13:46:16.516Z,13.70
2018-11-04T13:48:44.644Z,13.70
2018-11-04T13:51:12.827Z,13.70
2018-11-04T13:53:40.936Z,13.70
2018-11-04T13:56:09.165Z,13.70
2018-11-04T13:58:37.290Z,13.80
2018-11-04T14:01:05.656Z,13.70
2018-11-04T14:03:33.787Z,13.70
2018-11-04T14:06:01.919Z,13.80
2018-11-04T14:08:30.036Z,13.80
2018-11-04T14:10:58.166Z,13.80
2018-11-04T14:13:26.378Z,13.80
2018-11-04T14:15:54.451Z,13.80
2018-11-04T14:18:22.578Z,13.80
2018-11-04T14:20:50.703Z,13.70
2018-11-04T14:23:19.308Z,13.80
2018-11-04T14:25:47.460Z,13.70
2018-11-04T14:28:15.576Z,13.70
2018-11-04T14:30:43.759Z,13.70
2018-11-04T14:33:12.237Z,13.70
2018-11-04T14:35:40.386Z,13.80
2018-11-04T14:38:08.548Z,13.80
2018-11-04T14:40:36.980Z,13.80
2018-11-04T14:43:06.683Z,13.80
2018-11-04T14:45:34.852Z,13.80
2018-11-04T14:48:03.000Z,13.80
2018-11-04T14:50:31.229Z,13.80
2018-11-04T14:52:59.448Z,13.80
2018-11-04T14:55:27.503Z,13.90
2018-11-04T14:57:55.617Z,13.90
2018-11-04T15:00:23.739Z,13.90
2018-11-04T15:02:52.245Z,13.90
2018-11-04T15:05:20.365Z,13.90
2018-11-04T15:07:48.521Z,13.80
2018-11-04T15:10:16.666Z,13.80
2018-11-04T15:12:45.061Z,13.90
2018-11-04T15:15:16.037Z,13.80
2018-11-04T15:17:44.188Z,13.80
2018-11-04T15:20:12.658Z,13.80
2018-11-04T15:22:41.804Z,13.80
2018-11-04T15:25:09.960Z,13.70
2018-11-04T15:27:38.129Z,13.80
2018-11-04T15:30:07.267Z,13.80
2018-11-04T15:32:35.446Z,13.80
2018-11-04T15:35:03.689Z,13.70
2018-11-04T15:37:32.177Z,13.70
2018-11-04T15:40:00.396Z,13.70
2018-11-04T15:42:28.677Z,13.70
2018-11-04T15:44:56.935Z,13.70
2018-11-04T15:47:25.112Z,13.70
2018-11-04T15:49:53.273Z,13.70
2018-11-04T15:52:21.783Z,13.70
2018-11-04T15:54:52.454Z,13.70
2018-11-04T15:57:20.656Z,13.70
2018-11-04T15:59:48.764Z,13.70
2018-11-04T16:02:17.073Z,13.70
2018-11-04T16:04:45.247Z,13.70
2018-11-04T16:07:14.448Z,13.70
2018-11-04T16:09:42.573Z,13.70
2018-11-04T16:12:11.822Z,13.60
2018-11-04T16:14:40.477Z,13.70
2018-11-04T16:17:08.858Z,13.70
2018-11-04T16:19:37.108Z,13.70
2018-11-04T16:22:05.562Z,13.70
2018-11-04T16:24:33.810Z,13.60
2018-11-04T16:27:04.129Z,13.60
2018-11-04T16:29:32.372Z,13.50
2018-11-04T16:32:00.623Z,13.50
2018-11-04T16:34:28.697Z,13.50
2018-11-04T16:36:56.988Z,13.40
2018-11-04T16:39:25.315Z,13.40
2018-11-04T16:41:53.479Z,13.40
2018-11-04T16:44:21.806Z,13.40
2018-11-04T16:46:49.812Z,13.30
2018-11-04T16:49:18.154Z,13.30
2018-11-04T16:51:46.413Z,13.30
2018-11-04T16:54:14.557Z,13.30
2018-11-04T16:56:42.676Z,13.30
2018-11-04T16:59:10.827Z,13.30
2018-11-04T17:01:38.975Z,13.30
2018-11-04T17:04:07.247Z,13.20
2018-11-04T17:06:35.476Z,13.20
2018-11-04T17:09:04.036Z,13.20
2018-11-04T17:11:32.256Z,13.20
2018-11-04T17:14:00.368Z,13.10
2018-11-04T17:16:28.523Z,13.10
2018-11-04T17:18:56.717Z,13.00
2018-11-04T17:21:25.107Z,13.10
2018-11-04T17:23:53.256Z,13.10
2018-11-04T17:26:21.436Z,13.10
2018-11-04T17:28:49.639Z,13.10
2018-11-04T17:31:17.842Z,13.10
2018-11-04T17:33:45.995Z,13.10
2018-11-04T17:36:14.269Z,13.10
2018-11-04T17:38:42.419Z,13.10
2018-11-04T17:41:10.568Z,13.00
2018-11-04T17:43:38.740Z,13.00
2018-11-04T17:46:06.974Z,13.00
2018-11-04T17:48:35.185Z,13.00
2018-11-04T17:51:03.353Z,13.00
2018-11-04T17:53:31.512Z,12.90
2018-11-04T17:55:59.696Z,12.80
2018-11-04T17:58:28.019Z,12.60
2018-11-04T18:00:56.151Z,12.50
2018-11-04T18:03:24.268Z,12.30
2018-11-04T18:05:52.400Z,12.20
2018-11-04T18:08:20.577Z,12.00
2018-11-04T18:10:48.700Z,11.90
2018-11-04T18:13:17.769Z,11.90
2018-11-04T18:15:46.053Z,11.80
2018-11-04T18:18:14.233Z,11.70
2018-11-04T18:20:42.391Z,11.60
2018-11-04T18:23:10.715Z,11.50
2018-11-04T18:25:39.472Z,11.40
2018-11-04T18:28:07.751Z,11.30
2018-11-04T18:30:36.103Z,11.30
2018-11-04T18:33:08.687Z,11.30
2018-11-04T18:35:37.508Z,11.30
2018-11-04T18:38:05.821Z,11.30
2018-11-04T18:40:34.025Z,11.40
2018-11-04T18:43:02.507Z,11.40
2018-11-04T18:45:40.801Z,11.40
2018-11-04T18:48:11.276Z,11.30
2018-11-04T18:50:42.925Z,11.30
2018-11-04T18:53:11.055Z,11.30
2018-11-04T18:55:39.165Z,11.30
2018-11-04T18:58:08.397Z,11.30
2018-11-04T19:00:36.538Z,11.20
2018-11-04T19:03:04.887Z,11.30
2018-11-04T19:05:33.163Z,11.30
2018-11-04T19:08:01.132Z,11.30
2018-11-04T19:10:29.300Z,11.30
2018-11-04T19:12:57.420Z,11.40
2018-11-04T19:15:25.557Z,11.40
2018-11-04T19:17:53.694Z,11.40
2018-11-04T19:20:21.841Z,11.40
2018-11-04T19:22:49.978Z,11.40
2018-11-04T19:25:18.128Z,11.40
2018-11-04T19:27:46.311Z,11.40
2018-11-04T19:30:15.816Z,11.40
2018-11-04T19:32:44.340Z,11.50
2018-11-04T19:35:13.350Z,11.50
2018-11-04T19:37:41.560Z,11.50
2018-11-04T19:40:10.812Z,11.50
2018-11-04T19:42:39.513Z,11.60
2018-11-04T19:45:07.977Z,11.60
2018-11-04T19:47:36.140Z,11.60
2018-11-04T19:50:05.745Z,11.60
2018-11-04T19:52:34.039Z,11.50
2018-11-04T19:55:02.153Z,11.50
2018-11-04T19:57:30.924Z,11.50
2018-11-04T20:00:00.292Z,11.40
2018-11-04T20:02:29.054Z,11.40
2018-11-04T20:04:57.994Z,11.40
2018-11-04T20:07:26.475Z,11.50
2018-11-04T20:09:54.670Z,11.50
2018-11-04T20:12:28.205Z,11.50
2018-11-04T20:14:56.321Z,11.50
2018-11-04T20:17:24.510Z,11.50
2018-11-04T20:19:58.252Z,11.50
2018-11-04T20:22:26.343Z,11.50
2018-11-04T20:24:59.932Z,11.50
2018-11-04T20:27:28.432Z,11.60
2018-11-04T20:29:56.901Z,11.60
2018-11-04T20:32:30.567Z,11.60
2018-11-04T20:34:58.784Z,11.70
2018-11-04T20:37:27.046Z,11.70
2018-11-04T20:40:00.927Z,11.80
2018-11-04T20:42:29.574Z,11.80
2018-11-04T20:45:06.898Z,11.70
2018-11-04T20:47:55.328Z,11.70
2018-11-04T20:50:29.175Z,11.70
2018-11-04T20:53:04.336Z,11.70
2018-11-04T20:55:38.082Z,11.80
2018-11-04T20:58:07.670Z,11.80
2018-11-04T21:00:48.808Z,11.80
2018-11-04T21:03:19.825Z,11.80
2018-11-04T21:05:48.145Z,11.80
2018-11-04T21:08:16.428Z,11.90
2018-11-04T21:10:44.610Z,11.90
2018-11-04T21:13:12.811Z,11.90
2018-11-04T21:15:41.136Z,11.90
2018-11-04T21:18:09.303Z,11.90
2018-11-04T21:20:37.439Z,11.90
2018-11-04T21:23:11.253Z,11.90
2018-11-04T21:25:39.667Z,12.00
2018-11-04T21:28:07.669Z,12.00
2018-11-04T21:30:35.667Z,12.10
2018-11-04T21:33:03.820Z,12.10
2018-11-04T21:35:31.972Z,12.10
2018-11-04T21:38:00.148Z,12.10
2018-11-04T21:40:28.200Z,12.10
2018-11-04T21:42:56.380Z,12.30
2018-11-04T21:45:24.464Z,12.30
2018-11-04T21:47:52.580Z,12.50
2018-11-04T21:50:20.693Z,12.60
2018-11-04T21:52:48.884Z,12.70
2018-11-04T21:55:17.147Z,12.90
2018-11-04T21:57:45.105Z,13.00
2018-11-04T22:00:14.564Z,13.00
2018-11-04T22:02:42.824Z,13.10
2018-11-04T22:05:11.448Z,13.20
2018-11-04T22:07:40.324Z,13.40
2018-11-04T22:10:11.379Z,13.40
2018-11-04T22:12:39.860Z,13.40
2018-11-04T22:15:08.329Z,13.40
2018-11-04T22:17:36.736Z,13.50
2018-11-04T22:20:05.737Z,13.50
2018-11-04T22:22:33.836Z,13.50
2018-11-04T22:25:01.948Z,13.50
2018-11-04T22:27:30.157Z,13.50
2018-11-04T22:29:58.243Z,13.60
2018-11-04T22:32:26.440Z,13.60
2018-11-04T22:34:54.584Z,13.70
2018-11-04T22:37:22.689Z,13.70
2018-11-04T22:39:50.818Z,13.80
2018-11-04T22:42:19.036Z,13.80
2018-11-04T22:44:47.072Z,13.80
2018-11-04T22:47:15.268Z,13.80
2018-11-04T22:49:43.383Z,13.80
2018-11-04T22:52:11.472Z,13.80
2018-11-04T22:54:39.587Z,13.90
2018-11-04T22:57:07.685Z,13.90
2018-11-04T22:59:35.792Z,13.90
2018-11-04T23:02:03.907Z,13.90
2018-11-04T23:04:37.600Z,13.80
2018-11-04T23:07:05.724Z,13.70
2018-11-04T23:09:33.868Z,13.90
2018-11-04T23:12:01.987Z,13.80
2018-11-04T23:14:30.080Z,13.80
2018-11-04T23:16:58.184Z,13.70
2018-11-04T23:19:26.283Z,13.70
2018-11-04T23:21:54.420Z,13.70
2018-11-04T23:24:22.515Z,13.70
2018-11-04T23:26:50.663Z,13.70
2018-11-04T23:29:18.713Z,13.70
2018-11-04T23:31:46.812Z,13.70
2018-11-04T23:34:14.936Z,13.60
2018-11-04T23:36:43.043Z,13.60
2018-11-04T23:39:11.207Z,13.60
2018-11-04T23:41:39.460Z,13.70
2018-11-04T23:44:07.904Z,13.70
2018-11-04T23:46:36.136Z,13.70
2018-11-04T23:49:04.520Z,13.70
2018-11-04T23:51:32.636Z,13.80
2018-11-04T23:54:00.740Z,13.80
2018-11-04T23:56:28.849Z,13.80
2018-11-04T23:58:56.940Z,13.80
